createdAt,value
2017-12-30T00:00:53.918Z,3.27
2017-12-30T00:03:21.873Z,7.03
2017-12-30T00:05:49.324Z,4.60
2017-12-30T00:08:16.772Z,3.90
2017-12-30T00:10:44.616Z,3.67
2017-12-30T00:13:12.076Z,5.00
2017-12-30T00:15:39.538Z,3.97
2017-12-30T00:18:07.342Z,5.13
2017-12-30T00:20:34.813Z,4.37
2017-12-30T00:23:02.294Z,14.83
2017-12-30T00:25:29.984Z,4.53
2017-12-30T00:27:57.451Z,7.00
2017-12-30T00:30:24.973Z,4.50
2017-12-30T00:32:52.957Z,26.07
2017-12-30T00:35:20.416Z,15.90
2017-12-30T00:37:47.872Z,3.93
2017-12-30T00:40:15.658Z,5.53
2017-12-30T00:42:43.111Z,12.67
2017-12-30T00:45:10.560Z,4.07
2017-12-30T00:47:38.291Z,5.67
2017-12-30T00:50:05.743Z,19.77
2017-12-30T00:52:33.194Z,6.07
2017-12-30T00:55:01.033Z,5.62
2017-12-30T00:57:28.476Z,8.00
2017-12-30T00:59:55.936Z,6.40
2017-12-30T01:02:24.962Z,5.20
2017-12-30T01:04:52.424Z,5.47
2017-12-30T01:07:19.882Z,4.63
2017-12-30T01:09:47.648Z,6.83
2017-12-30T01:12:15.106Z,5.00
2017-12-30T01:14:42.570Z,6.63
2017-12-30T01:17:10.332Z,4.72
2017-12-30T01:19:37.781Z,4.87
2017-12-30T01:22:05.222Z,5.73
2017-12-30T01:24:33.022Z,12.20
2017-12-30T01:27:00.476Z,4.97
2017-12-30T01:29:27.976Z,5.30
2017-12-30T01:31:55.697Z,14.63
2017-12-30T01:34:23.160Z,4.60
2017-12-30T01:36:50.633Z,4.70
2017-12-30T01:39:18.692Z,4.45
2017-12-30T01:41:46.152Z,8.88
2017-12-30T01:44:13.612Z,5.35
2017-12-30T01:46:42.000Z,14.73
2017-12-30T01:49:09.469Z,5.62
2017-12-30T01:51:36.919Z,4.73
2017-12-30T01:54:04.678Z,6.32
2017-12-30T01:56:32.142Z,4.35
2017-12-30T01:58:59.594Z,7.63
2017-12-30T02:01:27.372Z,6.75
2017-12-30T02:03:55.571Z,8.30
2017-12-30T02:06:23.033Z,5.53
2017-12-30T02:08:50.820Z,11.45
2017-12-30T02:11:18.287Z,7.15
2017-12-30T02:13:46.153Z,8.07
2017-12-30T02:16:14.018Z,7.23
2017-12-30T02:18:41.483Z,9.43
2017-12-30T02:21:08.943Z,8.18
2017-12-30T02:23:36.980Z,9.27
2017-12-30T02:26:04.424Z,7.93
2017-12-30T02:28:31.886Z,9.80
2017-12-30T02:30:59.646Z,7.90
2017-12-30T02:33:27.114Z,10.20
2017-12-30T02:35:54.582Z,9.73
2017-12-30T02:38:22.640Z,10.33
2017-12-30T02:40:50.107Z,15.45
2017-12-30T02:43:17.560Z,13.30
2017-12-30T02:45:45.646Z,12.33
2017-12-30T02:48:13.107Z,19.83
2017-12-30T02:50:40.573Z,19.50
2017-12-30T02:53:08.331Z,8.93
2017-12-30T02:55:35.798Z,13.73
2017-12-30T02:58:03.272Z,10.38
2017-12-30T03:00:31.012Z,11.90
2017-12-30T03:02:58.473Z,9.65
2017-12-30T03:05:26.620Z,15.43
2017-12-30T03:07:54.316Z,10.35
2017-12-30T03:10:21.781Z,10.27
2017-12-30T03:12:49.232Z,14.90
2017-12-30T03:15:17.010Z,11.20
2017-12-30T03:17:44.472Z,15.37
2017-12-30T03:20:11.931Z,14.20
2017-12-30T03:22:39.695Z,15.75
2017-12-30T03:25:07.154Z,11.10
2017-12-30T03:27:34.634Z,9.18
2017-12-30T03:30:02.369Z,11.82
2017-12-30T03:32:29.833Z,12.60
2017-12-30T03:34:57.296Z,20.93
2017-12-30T03:37:25.060Z,14.98
2017-12-30T03:39:52.530Z,13.80
2017-12-30T03:42:20.061Z,14.43
2017-12-30T03:44:48.057Z,21.83
2017-12-30T03:47:15.520Z,19.57
2017-12-30T03:49:42.993Z,17.92
2017-12-30T03:52:10.732Z,13.57
2017-12-30T03:54:38.203Z,14.68
2017-12-30T03:57:05.760Z,20.88
2017-12-30T03:59:33.480Z,17.90
2017-12-30T04:02:00.953Z,20.83
2017-12-30T04:04:28.436Z,17.60
2017-12-30T04:06:56.737Z,29.70
2017-12-30T04:09:24.200Z,19.07
2017-12-30T04:11:51.659Z,23.07
2017-12-30T04:14:19.421Z,14.70
2017-12-30T04:16:46.882Z,12.77
2017-12-30T04:19:14.341Z,11.40
2017-12-30T04:21:42.377Z,11.73
2017-12-30T04:24:09.840Z,13.77
2017-12-30T04:26:37.289Z,10.90
2017-12-30T04:29:05.377Z,11.70
2017-12-30T04:31:32.850Z,12.23
2017-12-30T04:34:00.316Z,13.50
2017-12-30T04:36:28.241Z,17.77
2017-12-30T04:38:55.706Z,13.37
2017-12-30T04:41:23.166Z,17.07
2017-12-30T04:43:51.088Z,17.97
2017-12-30T04:46:18.542Z,19.43
2017-12-30T04:48:45.997Z,20.30
2017-12-30T04:51:13.775Z,29.40
2017-12-30T04:53:41.240Z,20.97
2017-12-30T04:56:08.706Z,20.63
2017-12-30T04:58:36.470Z,19.63
2017-12-30T05:01:03.924Z,21.40
2017-12-30T05:03:31.688Z,15.73
2017-12-30T05:05:59.464Z,15.90
2017-12-30T05:08:28.441Z,20.12
2017-12-30T05:10:55.902Z,17.83
2017-12-30T05:13:23.581Z,16.33
2017-12-30T05:15:51.046Z,21.23
2017-12-30T05:18:18.508Z,14.50
2017-12-30T05:20:46.368Z,14.30
2017-12-30T05:23:13.832Z,20.57
2017-12-30T05:25:41.306Z,36.60
2017-12-30T05:28:09.049Z,15.50
2017-12-30T05:30:36.497Z,19.53
2017-12-30T05:33:03.951Z,18.40
2017-12-30T05:35:31.746Z,16.50
2017-12-30T05:37:59.208Z,15.57
2017-12-30T05:40:26.664Z,17.33
2017-12-30T05:42:54.741Z,11.83
2017-12-30T05:45:22.482Z,12.60
2017-12-30T05:47:49.933Z,17.60
2017-12-30T05:50:17.728Z,13.47
2017-12-30T05:52:45.176Z,9.70
2017-12-30T05:55:12.616Z,8.67
2017-12-30T05:57:40.242Z,10.07
2017-12-30T06:00:07.704Z,10.10
2017-12-30T06:02:35.156Z,9.43
2017-12-30T06:05:03.108Z,9.47
2017-12-30T06:07:30.564Z,7.47
2017-12-30T06:09:58.512Z,10.00
2017-12-30T06:12:26.405Z,10.23
2017-12-30T06:14:53.863Z,10.17
2017-12-30T06:17:21.310Z,9.13
2017-12-30T06:19:49.094Z,9.23
2017-12-30T06:22:16.557Z,10.93
2017-12-30T06:24:44.012Z,10.57
2017-12-30T06:27:11.787Z,12.70
2017-12-30T06:29:39.249Z,12.70
2017-12-30T06:32:06.717Z,13.70
2017-12-30T06:34:34.485Z,13.03
2017-12-30T06:37:01.936Z,17.23
2017-12-30T06:39:29.403Z,12.70
2017-12-30T06:41:57.153Z,14.30
2017-12-30T06:44:24.684Z,14.77
2017-12-30T06:46:52.143Z,14.40
2017-12-30T06:49:19.841Z,19.60
2017-12-30T06:51:47.306Z,14.70
2017-12-30T06:54:14.768Z,22.50
2017-12-30T06:56:42.532Z,18.03
2017-12-30T06:59:09.987Z,21.93
2017-12-30T07:01:37.451Z,19.10
2017-12-30T07:04:05.229Z,18.97
2017-12-30T07:06:32.692Z,19.43
2017-12-30T07:09:00.152Z,15.77
2017-12-30T07:11:29.142Z,16.30
2017-12-30T07:13:56.603Z,16.00
2017-12-30T07:16:24.057Z,20.07
2017-12-30T07:18:51.818Z,16.70
2017-12-30T07:21:19.281Z,21.33
2017-12-30T07:23:46.740Z,19.00
2017-12-30T07:26:14.476Z,18.13
2017-12-30T07:28:41.929Z,19.20
2017-12-30T07:31:09.380Z,18.30
2017-12-30T07:33:37.199Z,19.23
2017-12-30T07:36:04.657Z,20.33
2017-12-30T07:38:32.120Z,17.13
2017-12-30T07:40:59.984Z,23.07
2017-12-30T07:43:27.440Z,22.33
2017-12-30T07:45:54.899Z,25.27
2017-12-30T07:48:22.600Z,33.03
2017-12-30T07:50:50.056Z,20.77
2017-12-30T07:53:17.508Z,21.10
2017-12-30T07:55:45.258Z,36.40
2017-12-30T07:58:12.721Z,28.63
2017-12-30T08:00:40.185Z,35.53
2017-12-30T08:03:08.204Z,39.30
2017-12-30T08:05:35.668Z,43.43
2017-12-30T08:08:03.121Z,63.97
2017-12-30T08:10:30.932Z,67.73
2017-12-30T08:12:59.308Z,70.47
2017-12-30T08:15:26.760Z,50.10
2017-12-30T08:17:54.545Z,40.70
2017-12-30T08:20:22.013Z,41.00
2017-12-30T08:22:49.484Z,52.00
2017-12-30T08:25:17.542Z,55.53
2017-12-30T08:27:45.005Z,44.37
2017-12-30T08:30:12.504Z,42.73
2017-12-30T08:32:40.220Z,59.43
2017-12-30T08:35:07.673Z,46.40
2017-12-30T08:37:35.129Z,51.10
2017-12-30T08:40:02.899Z,34.07
2017-12-30T08:42:30.357Z,37.10
2017-12-30T08:44:57.827Z,39.07
2017-12-30T08:47:25.597Z,36.10
2017-12-30T08:49:53.049Z,45.87
2017-12-30T08:52:20.500Z,49.40
2017-12-30T08:54:48.307Z,34.87
2017-12-30T08:57:15.773Z,35.40
2017-12-30T08:59:43.235Z,34.93
2017-12-30T09:02:10.984Z,42.90
2017-12-30T09:04:38.440Z,50.33
2017-12-30T09:07:05.895Z,39.67
2017-12-30T09:09:33.969Z,48.73
2017-12-30T09:12:01.435Z,43.47
2017-12-30T09:14:29.261Z,51.17
2017-12-30T09:16:57.573Z,34.10
2017-12-30T09:19:25.055Z,45.47
2017-12-30T09:21:52.525Z,52.80
2017-12-30T09:24:20.584Z,41.43
2017-12-30T09:26:48.042Z,40.10
2017-12-30T09:29:15.497Z,42.83
2017-12-30T09:31:43.248Z,44.33
2017-12-30T09:34:10.700Z,46.43
2017-12-30T09:36:38.148Z,38.03
2017-12-30T09:39:05.929Z,48.27
2017-12-30T09:41:33.386Z,42.17
2017-12-30T09:44:00.851Z,36.80
2017-12-30T09:46:28.623Z,30.93
2017-12-30T09:48:56.272Z,33.43
2017-12-30T09:51:23.729Z,28.03
2017-12-30T09:53:51.621Z,40.37
2017-12-30T09:56:19.077Z,28.37
2017-12-30T09:58:46.536Z,22.50
2017-12-30T10:01:14.314Z,33.80
2017-12-30T10:03:41.765Z,26.80
2017-12-30T10:06:09.229Z,30.23
2017-12-30T10:08:36.992Z,23.57
2017-12-30T10:11:04.450Z,25.50
2017-12-30T10:13:31.905Z,28.53
2017-12-30T10:15:59.992Z,29.63
2017-12-30T10:18:27.456Z,27.97
2017-12-30T10:20:54.921Z,28.33
2017-12-30T10:23:22.994Z,26.80
2017-12-30T10:25:50.462Z,24.03
2017-12-30T10:28:17.916Z,24.37
2017-12-30T10:30:45.990Z,34.07
2017-12-30T10:33:13.453Z,29.63
2017-12-30T10:35:40.907Z,27.23
2017-12-30T10:38:08.695Z,34.13
2017-12-30T10:40:36.145Z,35.73
2017-12-30T10:43:03.596Z,24.43
2017-12-30T10:45:31.348Z,36.43
2017-12-30T10:47:58.815Z,32.80
2017-12-30T10:50:26.283Z,40.60
2017-12-30T10:52:54.040Z,27.20
2017-12-30T10:55:21.497Z,33.20
2017-12-30T10:57:48.958Z,26.37
2017-12-30T11:00:17.340Z,34.27
2017-12-30T11:02:44.793Z,31.60
2017-12-30T11:05:12.310Z,30.33
2017-12-30T11:07:40.378Z,46.07
2017-12-30T11:10:07.844Z,30.53
2017-12-30T11:12:35.305Z,35.37
2017-12-30T11:15:03.021Z,27.83
2017-12-30T11:17:31.177Z,33.70
2017-12-30T11:19:58.636Z,32.90
2017-12-30T11:22:26.328Z,28.63
2017-12-30T11:24:53.778Z,23.97
2017-12-30T11:27:21.240Z,35.43
2017-12-30T11:29:49.319Z,24.63
2017-12-30T11:32:16.784Z,21.53
2017-12-30T11:34:44.251Z,23.23
2017-12-30T11:37:12.315Z,16.97
2017-12-30T11:39:39.776Z,24.53
2017-12-30T11:42:07.240Z,24.93
2017-12-30T11:44:34.993Z,42.37
2017-12-30T11:47:02.444Z,26.77
2017-12-30T11:49:29.906Z,24.80
2017-12-30T11:51:57.685Z,32.50
2017-12-30T11:54:25.142Z,23.43
2017-12-30T11:56:52.620Z,57.67
2017-12-30T11:59:20.371Z,58.73
2017-12-30T12:01:47.836Z,67.30
2017-12-30T12:04:15.290Z,80.60
2017-12-30T12:06:43.373Z,77.63
2017-12-30T12:09:10.834Z,105.13
2017-12-30T12:11:38.293Z,97.10
2017-12-30T12:14:06.061Z,112.07
2017-12-30T12:16:33.522Z,102.03
2017-12-30T12:19:01.661Z,98.07
2017-12-30T12:21:29.364Z,101.23
2017-12-30T12:23:56.874Z,102.37
2017-12-30T12:26:24.324Z,81.50
2017-12-30T12:28:52.044Z,84.97
2017-12-30T12:31:19.501Z,89.87
2017-12-30T12:33:46.952Z,80.80
2017-12-30T12:36:14.738Z,80.43
2017-12-30T12:38:42.202Z,72.03
2017-12-30T12:41:09.665Z,68.97
2017-12-30T12:43:37.389Z,58.53
2017-12-30T12:46:04.840Z,43.50
2017-12-30T12:48:32.288Z,59.17
2017-12-30T12:51:00.101Z,59.13
2017-12-30T12:53:27.555Z,49.20
2017-12-30T12:55:55.014Z,41.97
2017-12-30T12:58:22.789Z,29.63
2017-12-30T13:00:50.244Z,47.93
2017-12-30T13:03:17.701Z,32.83
2017-12-30T13:05:45.280Z,23.90
2017-12-30T13:08:12.731Z,29.90
2017-12-30T13:10:40.190Z,22.13
2017-12-30T13:13:08.164Z,29.20
2017-12-30T13:15:35.672Z,20.90
2017-12-30T13:18:03.135Z,22.87
2017-12-30T13:20:31.456Z,17.73
2017-12-30T13:22:58.937Z,21.07
2017-12-30T13:25:26.393Z,26.60
2017-12-30T13:27:54.151Z,28.07
2017-12-30T13:30:21.605Z,11.47
2017-12-30T13:32:49.068Z,17.90
2017-12-30T13:35:16.837Z,28.60
2017-12-30T13:37:44.288Z,16.57
2017-12-30T13:40:11.740Z,19.00
2017-12-30T13:42:39.533Z,15.73
2017-12-30T13:45:06.992Z,24.40
2017-12-30T13:47:34.457Z,23.00
2017-12-30T13:50:02.228Z,17.57
2017-12-30T13:52:29.703Z,17.80
2017-12-30T13:54:57.156Z,18.33
2017-12-30T13:57:25.210Z,21.23
2017-12-30T13:59:52.686Z,19.37
2017-12-30T14:02:20.145Z,23.33
2017-12-30T14:04:47.863Z,30.17
2017-12-30T14:07:15.311Z,19.67
2017-12-30T14:09:42.759Z,21.93
2017-12-30T14:12:10.590Z,26.60
2017-12-30T14:14:38.045Z,20.70
2017-12-30T14:17:05.505Z,22.03
2017-12-30T14:19:33.267Z,22.40
2017-12-30T14:22:01.165Z,24.90
2017-12-30T14:24:28.628Z,22.87
2017-12-30T14:26:56.580Z,20.27
2017-12-30T14:29:24.040Z,25.37
2017-12-30T14:31:51.496Z,28.37
2017-12-30T14:34:19.333Z,27.63
2017-12-30T14:36:46.786Z,54.23
2017-12-30T14:39:14.246Z,45.80
2017-12-30T14:41:41.943Z,52.57
2017-12-30T14:44:09.403Z,42.13
2017-12-30T14:46:36.857Z,35.93
2017-12-30T14:49:04.680Z,38.60
2017-12-30T14:51:32.146Z,38.33
2017-12-30T14:53:59.600Z,31.20
2017-12-30T14:56:27.313Z,62.00
2017-12-30T14:58:54.764Z,39.77
2017-12-30T15:01:22.245Z,43.30
2017-12-30T15:03:49.950Z,49.77
2017-12-30T15:06:17.413Z,52.70
2017-12-30T15:08:44.870Z,56.07
2017-12-30T15:11:12.693Z,59.40
2017-12-30T15:13:40.149Z,71.10
2017-12-30T15:16:07.606Z,60.97
2017-12-30T15:18:35.381Z,68.17
2017-12-30T15:21:02.849Z,63.87
2017-12-30T15:23:30.871Z,52.73
2017-12-30T15:25:58.684Z,54.23
2017-12-30T15:28:26.149Z,58.00
2017-12-30T15:30:53.604Z,52.67
2017-12-30T15:33:21.518Z,68.27
2017-12-30T15:35:48.980Z,64.27
2017-12-30T15:38:16.438Z,75.17
2017-12-30T15:40:44.056Z,66.60
2017-12-30T15:43:11.520Z,54.30
2017-12-30T15:45:38.977Z,73.17
2017-12-30T15:48:06.748Z,54.00
2017-12-30T15:50:34.211Z,58.77
2017-12-30T15:53:01.672Z,69.23
2017-12-30T15:55:29.422Z,56.87
2017-12-30T15:57:56.875Z,56.33
2017-12-30T16:00:24.347Z,66.23
2017-12-30T16:02:52.085Z,58.10
2017-12-30T16:05:19.540Z,57.77
2017-12-30T16:07:46.993Z,89.33
2017-12-30T16:10:14.801Z,58.00
2017-12-30T16:12:42.247Z,93.40
2017-12-30T16:15:09.705Z,59.07
2017-12-30T16:17:37.797Z,68.33
2017-12-30T16:20:05.260Z,76.90
2017-12-30T16:22:32.792Z,67.00
2017-12-30T16:25:02.637Z,73.70
2017-12-30T16:27:30.097Z,72.20
2017-12-30T16:29:57.551Z,79.23
2017-12-30T16:32:25.328Z,59.50
2017-12-30T16:34:52.794Z,64.20
2017-12-30T16:37:20.260Z,72.43
2017-12-30T16:39:48.013Z,100.47
2017-12-30T16:42:15.477Z,75.57
2017-12-30T16:44:42.931Z,70.47
2017-12-30T16:47:10.691Z,77.77
2017-12-30T16:49:38.156Z,82.20
2017-12-30T16:52:05.613Z,80.30
2017-12-30T16:54:33.392Z,79.20
2017-12-30T16:57:00.860Z,87.43
2017-12-30T16:59:28.317Z,88.83
2017-12-30T17:01:56.081Z,75.33
2017-12-30T17:04:23.540Z,64.43
2017-12-30T17:06:51.005Z,73.87
2017-12-30T17:09:18.759Z,96.17
2017-12-30T17:11:46.216Z,82.20
2017-12-30T17:14:13.684Z,88.77
2017-12-30T17:16:41.333Z,77.50
2017-12-30T17:19:08.794Z,87.43
2017-12-30T17:21:36.252Z,105.23
2017-12-30T17:24:04.130Z,67.67
2017-12-30T17:26:32.901Z,68.33
2017-12-30T17:29:00.364Z,54.10
2017-12-30T17:31:28.040Z,59.17
2017-12-30T17:33:55.489Z,49.27
2017-12-30T17:36:22.948Z,54.30
2017-12-30T17:38:50.729Z,41.30
2017-12-30T17:41:18.193Z,36.73
2017-12-30T17:43:45.644Z,49.20
2017-12-30T17:46:13.428Z,39.87
2017-12-30T17:48:40.889Z,43.97
2017-12-30T17:51:08.346Z,42.03
2017-12-30T17:53:36.113Z,69.33
2017-12-30T17:56:03.557Z,55.20
2017-12-30T17:58:31.008Z,44.07
2017-12-30T18:00:58.800Z,46.97
2017-12-30T18:03:26.274Z,44.80
2017-12-30T18:05:53.723Z,39.03
2017-12-30T18:08:22.326Z,38.90
2017-12-30T18:10:49.784Z,42.27
2017-12-30T18:13:17.241Z,40.73
2017-12-30T18:15:45.149Z,39.43
2017-12-30T18:18:12.566Z,45.67
2017-12-30T18:20:40.018Z,37.90
2017-12-30T18:23:07.795Z,44.73
2017-12-30T18:25:35.253Z,47.67
2017-12-30T18:28:03.396Z,43.60
2017-12-30T18:30:31.000Z,44.70
2017-12-30T18:32:58.464Z,41.20
2017-12-30T18:35:25.929Z,58.23
2017-12-30T18:37:53.768Z,39.77
2017-12-30T18:40:21.228Z,44.33
2017-12-30T18:42:48.681Z,63.80
2017-12-30T18:45:16.505Z,49.73
2017-12-30T18:47:43.961Z,52.63
2017-12-30T18:50:11.424Z,52.43
2017-12-30T18:52:39.133Z,41.73
2017-12-30T18:55:06.599Z,44.90
2017-12-30T18:57:34.060Z,53.30
2017-12-30T19:00:01.832Z,57.43
2017-12-30T19:02:29.296Z,51.03
2017-12-30T19:04:56.748Z,89.13
2017-12-30T19:07:24.516Z,60.33
2017-12-30T19:09:51.972Z,56.53
2017-12-30T19:12:19.448Z,71.87
2017-12-30T19:14:47.211Z,61.70
2017-12-30T19:17:14.664Z,46.40
2017-12-30T19:19:42.129Z,46.53
2017-12-30T19:22:09.796Z,47.87
2017-12-30T19:24:37.259Z,49.23
2017-12-30T19:27:04.722Z,51.30
2017-12-30T19:29:33.492Z,57.73
2017-12-30T19:32:00.950Z,68.00
2017-12-30T19:34:28.406Z,62.83
2017-12-30T19:36:56.089Z,51.77
2017-12-30T19:39:23.557Z,53.73
2017-12-30T19:41:51.012Z,48.27
2017-12-30T19:44:18.869Z,59.13
2017-12-30T19:46:46.321Z,66.60
2017-12-30T19:49:13.773Z,61.73
2017-12-30T19:51:41.562Z,62.63
2017-12-30T19:54:09.053Z,63.10
2017-12-30T19:56:36.522Z,54.60
2017-12-30T19:59:04.249Z,59.37
2017-12-30T20:01:31.704Z,64.30
2017-12-30T20:03:59.173Z,69.90
2017-12-30T20:06:27.240Z,57.10
2017-12-30T20:08:54.705Z,50.47
2017-12-30T20:11:22.172Z,54.17
2017-12-30T20:13:50.233Z,56.20
2017-12-30T20:16:18.304Z,55.67
2017-12-30T20:18:45.769Z,67.60
2017-12-30T20:21:13.226Z,70.03
2017-12-30T20:23:41.305Z,52.97
2017-12-30T20:26:08.772Z,60.47
2017-12-30T20:28:36.241Z,48.17
2017-12-30T20:31:03.994Z,47.57
2017-12-30T20:33:31.456Z,49.60
2017-12-30T20:35:58.921Z,47.50
2017-12-30T20:38:26.831Z,45.87
2017-12-30T20:40:54.292Z,52.43
2017-12-30T20:43:21.744Z,42.63
2017-12-30T20:45:49.662Z,46.27
2017-12-30T20:48:17.121Z,53.70
2017-12-30T20:50:44.636Z,48.50
2017-12-30T20:53:12.404Z,75.43
2017-12-30T20:55:39.868Z,57.47
2017-12-30T20:58:07.328Z,56.43
2017-12-30T21:00:35.054Z,44.37
2017-12-30T21:03:02.516Z,45.23
2017-12-30T21:05:29.978Z,46.60
2017-12-30T21:07:57.733Z,49.60
2017-12-30T21:10:25.193Z,53.43
2017-12-30T21:12:52.665Z,48.67
2017-12-30T21:15:20.414Z,40.70
2017-12-30T21:17:48.264Z,53.20
2017-12-30T21:20:15.728Z,64.87
2017-12-30T21:22:43.385Z,54.50
2017-12-30T21:25:10.843Z,43.77
2017-12-30T21:27:38.312Z,42.40
2017-12-30T21:30:06.111Z,44.33
2017-12-30T21:32:33.572Z,49.77
2017-12-30T21:35:01.026Z,54.67
2017-12-30T21:37:28.661Z,58.53
2017-12-30T21:39:56.116Z,47.50
2017-12-30T21:42:23.576Z,42.40
2017-12-30T21:44:51.477Z,59.50
2017-12-30T21:47:18.937Z,52.37
2017-12-30T21:49:46.397Z,55.33
2017-12-30T21:52:14.152Z,58.80
2017-12-30T21:54:41.609Z,54.80
2017-12-30T21:57:09.060Z,53.27
2017-12-30T21:59:36.841Z,50.97
2017-12-30T22:02:04.298Z,55.57
2017-12-30T22:04:31.758Z,79.37
2017-12-30T22:07:00.766Z,57.23
2017-12-30T22:09:28.227Z,72.20
2017-12-30T22:11:55.681Z,68.40
2017-12-30T22:14:23.457Z,64.20
2017-12-30T22:16:50.915Z,65.93
2017-12-30T22:19:19.679Z,71.10
2017-12-30T22:21:47.360Z,60.20
2017-12-30T22:24:14.805Z,60.90
2017-12-30T22:26:42.260Z,68.13
2017-12-30T22:29:10.065Z,55.43
2017-12-30T22:31:37.518Z,50.33
2017-12-30T22:34:04.971Z,58.33
2017-12-30T22:36:32.737Z,65.90
2017-12-30T22:39:00.190Z,64.57
2017-12-30T22:41:27.647Z,62.23
2017-12-30T22:43:55.736Z,58.03
2017-12-30T22:46:23.204Z,61.50
2017-12-30T22:48:50.662Z,57.87
2017-12-30T22:51:18.421Z,56.57
2017-12-30T22:53:45.876Z,58.33
2017-12-30T22:56:13.338Z,47.40
2017-12-30T22:58:41.101Z,57.00
2017-12-30T23:01:08.554Z,46.90
2017-12-30T23:03:36.018Z,59.00
2017-12-30T23:06:03.789Z,48.53
2017-12-30T23:08:31.243Z,53.80
2017-12-30T23:10:58.700Z,52.27
2017-12-30T23:13:26.792Z,64.93
2017-12-30T23:15:54.265Z,50.50
2017-12-30T23:18:21.719Z,50.57
2017-12-30T23:20:49.812Z,44.83
2017-12-30T23:23:17.264Z,54.43
2017-12-30T23:25:44.729Z,56.93
2017-12-30T23:28:12.464Z,45.30
2017-12-30T23:30:39.912Z,59.03
2017-12-30T23:33:07.364Z,59.47
2017-12-30T23:35:35.159Z,58.93
2017-12-30T23:38:02.621Z,58.00
2017-12-30T23:40:30.080Z,58.57
2017-12-30T23:42:57.833Z,56.83
2017-12-30T23:45:25.293Z,59.37
2017-12-30T23:47:52.737Z,68.33
2017-12-30T23:50:20.446Z,60.27
2017-12-30T23:52:47.909Z,57.93
2017-12-30T23:55:15.360Z,63.93
2017-12-30T23:57:43.208Z,59.13
